createdAt,value
2022-10-09T00:01:09.579Z,9.70
2022-10-09T00:03:38.254Z,9.60
2022-10-09T00:06:06.156Z,9.50
2022-10-09T00:08:34.716Z,9.40
2022-10-09T00:11:09.545Z,9.20
2022-10-09T00:13:36.964Z,9.10
2022-10-09T00:16:10.273Z,9.10
2022-10-09T00:18:37.232Z,9.10
2022-10-09T00:21:05.012Z,9.10
2022-10-09T00:23:32.286Z,9.00
2022-10-09T00:26:01.151Z,9.10
2022-10-09T00:28:35.302Z,9.10
2022-10-09T00:31:08.820Z,9.20
2022-10-09T00:33:36.642Z,9.20
2022-10-09T00:36:14.435Z,9.10
2022-10-09T00:38:41.320Z,9.10
2022-10-09T00:41:08.918Z,9.00
2022-10-09T00:43:44.824Z,8.90
2022-10-09T00:46:25.698Z,8.80
2022-10-09T00:49:20.667Z,8.80
2022-10-09T00:51:48.550Z,8.80
2022-10-09T00:54:18.099Z,8.70
2022-10-09T00:56:44.963Z,8.70
2022-10-09T00:59:12.951Z,8.60
2022-10-09T01:01:41.828Z,8.60
2022-10-09T01:04:09.456Z,8.50
2022-10-09T01:07:10.989Z,8.50
2022-10-09T01:09:56.818Z,8.50
2022-10-09T01:12:33.850Z,8.50
2022-10-09T01:15:14.915Z,8.40
2022-10-09T01:17:55.423Z,8.40
2022-10-09T01:20:29.724Z,8.40
2022-10-09T01:23:07.972Z,8.30
2022-10-09T01:25:42.060Z,8.10
2022-10-09T01:28:10.415Z,8.30
2022-10-09T01:30:37.520Z,8.20
2022-10-09T01:33:05.423Z,8.10
2022-10-09T01:35:32.230Z,8.20
2022-10-09T01:38:01.184Z,8.20
2022-10-09T01:40:28.978Z,8.20
2022-10-09T01:42:56.524Z,8.20
2022-10-09T01:45:23.365Z,8.30
2022-10-09T01:47:50.473Z,8.30
2022-10-09T01:50:29.250Z,8.40
2022-10-09T01:53:06.267Z,8.50
2022-10-09T01:55:46.111Z,8.50
2022-10-09T01:58:33.931Z,8.50
2022-10-09T02:01:05.122Z,8.50
2022-10-09T02:03:33.597Z,8.30
2022-10-09T02:06:01.983Z,8.30
2022-10-09T02:08:32.455Z,8.40
2022-10-09T02:11:02.821Z,8.40
2022-10-09T02:13:32.361Z,8.50
2022-10-09T02:16:14.425Z,8.60
2022-10-09T02:18:47.496Z,8.60
2022-10-09T02:21:23.585Z,8.60
2022-10-09T02:23:51.619Z,8.70
2022-10-09T02:26:19.576Z,8.70
2022-10-09T02:28:46.611Z,8.70
2022-10-09T02:31:30.710Z,8.80
2022-10-09T02:34:03.589Z,8.80
2022-10-09T02:36:31.547Z,8.80
2022-10-09T02:38:59.168Z,8.80
2022-10-09T02:41:26.708Z,8.80
2022-10-09T02:43:53.621Z,8.80
2022-10-09T02:46:20.708Z,8.80
2022-10-09T02:48:47.732Z,8.80
2022-10-09T02:51:14.677Z,8.80
2022-10-09T02:53:41.392Z,8.90
2022-10-09T02:56:08.199Z,8.80
2022-10-09T02:58:35.481Z,8.90
2022-10-09T03:01:02.320Z,8.90
2022-10-09T03:03:29.204Z,8.80
2022-10-09T03:06:11.115Z,8.80
2022-10-09T03:08:43.818Z,8.90
2022-10-09T03:11:11.931Z,8.90
2022-10-09T03:13:39.763Z,8.90
2022-10-09T03:16:12.429Z,8.90
2022-10-09T03:18:39.338Z,8.90
2022-10-09T03:21:07.669Z,8.90
2022-10-09T03:23:34.810Z,8.90
2022-10-09T03:26:05.005Z,8.90
2022-10-09T03:28:32.220Z,8.90
2022-10-09T03:30:59.089Z,8.80
2022-10-09T03:33:25.853Z,8.70
2022-10-09T03:35:52.616Z,8.70
2022-10-09T03:38:19.340Z,8.70
2022-10-09T03:40:46.095Z,8.70
2022-10-09T03:43:12.976Z,8.70
2022-10-09T03:45:41.154Z,8.70
2022-10-09T03:48:09.256Z,8.60
2022-10-09T03:50:38.249Z,8.60
2022-10-09T03:53:06.245Z,8.60
2022-10-09T03:55:33.160Z,8.60
2022-10-09T03:57:59.927Z,8.60
2022-10-09T04:00:27.130Z,8.60
2022-10-09T04:02:54.010Z,8.70
2022-10-09T04:05:20.856Z,8.60
2022-10-09T04:07:47.595Z,8.60
2022-10-09T04:10:14.389Z,8.60
2022-10-09T04:12:41.150Z,8.60
2022-10-09T04:15:08.944Z,8.60
2022-10-09T04:17:35.787Z,8.60
2022-10-09T04:20:02.944Z,8.60
2022-10-09T04:22:29.746Z,8.60
2022-10-09T04:24:56.493Z,8.50
2022-10-09T04:27:23.230Z,8.50
2022-10-09T04:29:49.988Z,8.50
2022-10-09T04:32:16.743Z,8.50
2022-10-09T04:34:43.512Z,8.40
2022-10-09T04:37:10.201Z,8.40
2022-10-09T04:39:36.938Z,8.40
2022-10-09T04:42:03.983Z,8.40
2022-10-09T04:44:30.712Z,8.40
2022-10-09T04:46:57.441Z,8.40
2022-10-09T04:49:24.190Z,8.50
2022-10-09T04:51:50.954Z,8.50
2022-10-09T04:54:17.726Z,8.50
2022-10-09T04:56:44.512Z,8.50
2022-10-09T04:59:11.272Z,8.50
2022-10-09T05:01:38.645Z,8.50
2022-10-09T05:04:05.772Z,8.50
2022-10-09T05:06:32.498Z,8.40
2022-10-09T05:08:59.240Z,8.40
2022-10-09T05:11:26.895Z,8.40
2022-10-09T05:13:55.881Z,8.40
2022-10-09T05:16:28.705Z,8.40
2022-10-09T05:18:57.652Z,8.40
2022-10-09T05:21:25.493Z,8.40
2022-10-09T05:23:54.522Z,8.40
2022-10-09T05:26:22.760Z,8.40
2022-10-09T05:28:50.068Z,8.40
2022-10-09T05:31:26.119Z,8.40
2022-10-09T05:33:53.447Z,8.50
2022-10-09T05:36:20.766Z,8.40
2022-10-09T05:38:48.151Z,8.20
2022-10-09T05:41:17.052Z,8.10
2022-10-09T05:43:46.235Z,8.10
2022-10-09T05:46:14.540Z,8.10
2022-10-09T05:48:43.837Z,8.10
2022-10-09T05:51:22.625Z,8.10
2022-10-09T05:53:50.285Z,8.10
2022-10-09T05:56:18.355Z,8.10
2022-10-09T05:58:50.501Z,8.20
2022-10-09T06:01:17.586Z,8.20
2022-10-09T06:03:49.771Z,8.30
2022-10-09T06:06:17.512Z,8.30
2022-10-09T06:08:44.532Z,8.40
2022-10-09T06:11:17.164Z,8.40
2022-10-09T06:13:44.757Z,8.40
2022-10-09T06:16:13.996Z,8.40
2022-10-09T06:18:45.434Z,8.50
2022-10-09T06:21:16.053Z,8.50
2022-10-09T06:23:43.037Z,8.50
2022-10-09T06:26:14.198Z,8.50
2022-10-09T06:28:41.405Z,8.60
2022-10-09T06:31:14.347Z,8.70
2022-10-09T06:33:43.041Z,8.70
2022-10-09T06:36:15.585Z,8.60
2022-10-09T06:38:42.838Z,8.70
2022-10-09T06:41:12.201Z,8.70
2022-10-09T06:43:39.411Z,8.80
2022-10-09T06:46:09.188Z,8.90
2022-10-09T06:48:37.607Z,8.90
2022-10-09T06:51:16.221Z,8.90
2022-10-09T06:53:47.837Z,8.90
2022-10-09T06:56:15.705Z,8.90
2022-10-09T06:58:42.758Z,8.90
2022-10-09T07:01:12.800Z,9.00
2022-10-09T07:03:41.614Z,9.10
2022-10-09T07:06:21.487Z,9.20
2022-10-09T07:08:51.188Z,9.10
2022-10-09T07:11:26.934Z,9.10
2022-10-09T07:13:57.160Z,9.20
2022-10-09T07:16:26.928Z,9.40
2022-10-09T07:18:55.090Z,9.50
2022-10-09T07:21:22.289Z,9.50
2022-10-09T07:23:49.034Z,9.60
2022-10-09T07:26:21.779Z,9.80
2022-10-09T07:28:48.953Z,9.80
2022-10-09T07:31:16.410Z,9.80
2022-10-09T07:33:43.486Z,9.80
2022-10-09T07:36:11.426Z,9.90
2022-10-09T07:38:38.178Z,10.20
2022-10-09T07:41:08.055Z,10.50
2022-10-09T07:43:36.302Z,10.70
2022-10-09T07:46:04.575Z,10.70
2022-10-09T07:48:31.832Z,10.60
2022-10-09T07:51:06.481Z,10.40
2022-10-09T07:53:35.945Z,10.30
2022-10-09T07:56:04.483Z,10.40
2022-10-09T07:58:31.559Z,10.40
2022-10-09T08:01:05.043Z,10.60
2022-10-09T08:03:31.882Z,10.80
2022-10-09T08:05:58.642Z,10.70
2022-10-09T08:08:25.621Z,10.70
2022-10-09T08:10:52.387Z,10.80
2022-10-09T08:13:19.146Z,10.90
2022-10-09T08:15:45.940Z,11.00
2022-10-09T08:18:12.840Z,11.20
2022-10-09T08:20:39.889Z,11.20
2022-10-09T08:23:06.978Z,11.30
2022-10-09T08:25:37.050Z,11.30
2022-10-09T08:28:05.195Z,11.30
2022-10-09T08:30:32.134Z,11.40
2022-10-09T08:32:58.878Z,11.20
2022-10-09T08:35:25.755Z,11.20
2022-10-09T08:37:52.560Z,11.20
2022-10-09T08:40:27.154Z,11.40
2022-10-09T08:43:04.372Z,11.60
2022-10-09T08:45:32.641Z,11.70
2022-10-09T08:48:04.119Z,11.60
2022-10-09T08:50:36.164Z,11.60
2022-10-09T08:53:30.560Z,11.60
2022-10-09T08:56:00.917Z,11.60
2022-10-09T08:58:36.185Z,11.70
2022-10-09T09:01:36.214Z,11.60
2022-10-09T09:04:27.366Z,11.60
2022-10-09T09:07:18.264Z,11.80
2022-10-09T09:09:57.031Z,11.80
2022-10-09T09:12:34.318Z,11.80
2022-10-09T09:15:20.186Z,11.80
2022-10-09T09:17:58.134Z,12.00
2022-10-09T09:20:57.237Z,12.10
2022-10-09T09:23:29.612Z,12.10
2022-10-09T09:25:56.802Z,12.30
2022-10-09T09:28:26.396Z,12.40
2022-10-09T09:30:59.579Z,12.50
2022-10-09T09:33:36.248Z,12.50
2022-10-09T09:36:15.271Z,12.40
2022-10-09T09:39:03.219Z,12.40
2022-10-09T09:41:29.093Z,12.60
2022-10-09T09:43:55.951Z,12.90
2022-10-09T09:46:28.492Z,13.00
2022-10-09T09:48:55.596Z,12.90
2022-10-09T09:51:28.873Z,12.90
2022-10-09T09:54:21.582Z,13.10
2022-10-09T09:57:12.020Z,13.10
2022-10-09T09:59:45.945Z,12.90
2022-10-09T10:02:22.838Z,12.80
2022-10-09T10:04:51.512Z,12.80
2022-10-09T10:07:31.636Z,12.90
2022-10-09T10:10:15.523Z,13.10
2022-10-09T10:12:54.235Z,13.20
2022-10-09T10:15:23.271Z,13.30
2022-10-09T10:17:56.437Z,13.50
2022-10-09T10:20:23.678Z,13.30
2022-10-09T10:22:57.006Z,13.30
2022-10-09T10:25:32.473Z,13.30
2022-10-09T10:28:11.091Z,13.50
2022-10-09T10:30:38.419Z,13.60
2022-10-09T10:33:22.316Z,13.60
2022-10-09T10:35:56.298Z,13.60
2022-10-09T10:38:34.955Z,13.70
2022-10-09T10:41:15.731Z,13.80
2022-10-09T10:43:47.360Z,13.70
2022-10-09T10:46:23.759Z,13.70
2022-10-09T10:48:51.732Z,13.50
2022-10-09T10:51:18.430Z,13.70
2022-10-09T10:54:12.539Z,13.70
2022-10-09T10:57:01.790Z,13.90
2022-10-09T10:59:53.336Z,14.10
2022-10-09T11:02:48.445Z,14.10
2022-10-09T11:05:23.290Z,14.00
2022-10-09T11:08:13.512Z,14.00
2022-10-09T11:10:59.596Z,14.00
2022-10-09T11:13:59.455Z,13.90
2022-10-09T11:16:29.361Z,14.00
2022-10-09T11:19:14.944Z,14.10
2022-10-09T11:21:50.772Z,14.10
2022-10-09T11:24:41.522Z,14.00
2022-10-09T11:27:20.071Z,14.20
2022-10-09T11:30:12.594Z,14.10
2022-10-09T11:32:47.430Z,14.20
2022-10-09T11:35:17.793Z,14.30
2022-10-09T11:37:53.936Z,14.20
2022-10-09T11:40:26.773Z,14.20
2022-10-09T11:43:17.559Z,14.20
2022-10-09T11:45:53.288Z,14.10
2022-10-09T11:48:37.577Z,14.00
2022-10-09T11:51:25.120Z,14.10
2022-10-09T11:53:53.259Z,14.00
2022-10-09T11:56:23.812Z,14.20
2022-10-09T11:59:03.559Z,14.20
2022-10-09T12:01:39.675Z,14.00
2022-10-09T12:04:12.415Z,14.10
2022-10-09T12:07:09.295Z,14.20
2022-10-09T12:09:37.836Z,14.30
2022-10-09T12:12:20.795Z,14.30
2022-10-09T12:14:49.992Z,14.20
2022-10-09T12:17:30.931Z,14.20
2022-10-09T12:20:22.624Z,14.10
2022-10-09T12:23:24.681Z,14.20
2022-10-09T12:25:45.695Z,14.10
2022-10-09T12:28:20.121Z,14.10
2022-10-09T12:30:48.549Z,14.10
2022-10-09T12:33:15.272Z,14.20
2022-10-09T12:35:46.614Z,14.40
2022-10-09T12:38:28.435Z,14.40
2022-10-09T12:40:58.787Z,14.40
2022-10-09T12:43:25.603Z,14.40
2022-10-09T12:45:53.789Z,14.40
2022-10-09T12:48:26.129Z,14.50
2022-10-09T12:50:53.937Z,14.40
2022-10-09T12:53:26.174Z,14.50
2022-10-09T12:56:03.301Z,14.40
2022-10-09T12:58:33.039Z,14.30
2022-10-09T13:01:05.967Z,14.30
2022-10-09T13:03:54.435Z,14.40
2022-10-09T13:06:23.912Z,14.50
2022-10-09T13:09:04.237Z,14.60
2022-10-09T13:11:35.448Z,14.50
2022-10-09T13:14:02.500Z,14.50
2022-10-09T13:16:43.619Z,14.50
2022-10-09T13:19:25.973Z,14.30
2022-10-09T13:22:06.316Z,14.40
2022-10-09T13:24:33.694Z,14.40
2022-10-09T13:27:00.484Z,14.30
2022-10-09T13:29:27.275Z,14.30
2022-10-09T13:31:53.995Z,14.40
2022-10-09T13:34:23.711Z,14.60
2022-10-09T13:36:50.851Z,14.60
2022-10-09T13:39:17.556Z,14.60
2022-10-09T13:41:46.114Z,14.60
2022-10-09T13:44:12.976Z,14.60
2022-10-09T13:46:39.804Z,14.60
2022-10-09T13:49:06.555Z,14.50
2022-10-09T13:51:33.340Z,14.50
2022-10-09T13:54:00.130Z,14.40
2022-10-09T13:56:27.989Z,14.40
2022-10-09T13:58:54.764Z,14.50
2022-10-09T14:01:21.582Z,14.50
2022-10-09T14:03:48.384Z,14.50
2022-10-09T14:06:15.160Z,14.60
2022-10-09T14:08:42.064Z,14.50
2022-10-09T14:11:08.929Z,14.60
2022-10-09T14:13:35.717Z,14.70
2022-10-09T14:16:06.874Z,14.60
2022-10-09T14:18:33.722Z,14.70
2022-10-09T14:21:00.430Z,14.70
2022-10-09T14:23:27.138Z,14.80
2022-10-09T14:25:53.892Z,14.90
2022-10-09T14:28:20.720Z,14.90
2022-10-09T14:30:47.479Z,14.80
2022-10-09T14:33:14.295Z,14.70
2022-10-09T14:35:41.105Z,14.70
2022-10-09T14:38:07.909Z,14.70
2022-10-09T14:40:36.793Z,14.70
2022-10-09T14:43:03.583Z,14.70
2022-10-09T14:45:30.485Z,14.70
2022-10-09T14:47:57.294Z,14.70
2022-10-09T14:50:24.221Z,14.60
2022-10-09T14:52:51.326Z,14.60
2022-10-09T14:55:18.457Z,14.60
2022-10-09T14:57:45.491Z,14.60
2022-10-09T15:00:13.969Z,14.60
2022-10-09T15:05:12.786Z,14.60
2022-10-09T15:07:39.486Z,14.50
2022-10-09T15:10:06.647Z,14.50
2022-10-09T15:12:33.386Z,14.40
2022-10-09T15:15:00.133Z,14.30
2022-10-09T15:17:26.827Z,14.40
2022-10-09T15:19:54.097Z,14.40
2022-10-09T15:22:20.836Z,14.50
2022-10-09T15:24:47.961Z,14.40
2022-10-09T15:27:14.671Z,14.40
2022-10-09T15:29:42.039Z,14.40
2022-10-09T15:32:08.882Z,14.50
2022-10-09T15:34:38.807Z,14.40
2022-10-09T15:37:07.645Z,14.40
2022-10-09T15:39:34.440Z,14.40
2022-10-09T15:42:01.194Z,14.40
2022-10-09T15:44:27.971Z,14.40
2022-10-09T15:46:54.689Z,14.40
2022-10-09T15:49:21.480Z,14.30
2022-10-09T15:51:48.344Z,14.30
2022-10-09T15:54:15.462Z,14.20
2022-10-09T15:56:42.582Z,14.30
2022-10-09T15:59:13.354Z,14.30
2022-10-09T16:01:40.241Z,14.20
2022-10-09T16:04:07.113Z,14.10
2022-10-09T16:06:33.860Z,14.10
2022-10-09T16:09:01.232Z,14.10
2022-10-09T16:11:27.991Z,14.10
2022-10-09T16:13:55.794Z,14.00
2022-10-09T16:16:27.639Z,14.00
2022-10-09T16:18:55.777Z,13.90
2022-10-09T16:21:25.937Z,13.90
2022-10-09T16:23:58.144Z,13.80
2022-10-09T16:26:26.618Z,13.70
2022-10-09T16:28:53.837Z,13.70
2022-10-09T16:31:27.064Z,13.70
2022-10-09T16:33:54.155Z,13.60
2022-10-09T16:36:20.893Z,13.60
2022-10-09T16:38:47.638Z,13.50
2022-10-09T16:41:17.968Z,13.50
2022-10-09T16:43:46.379Z,13.40
2022-10-09T16:46:22.786Z,13.40
2022-10-09T16:48:50.737Z,13.40
2022-10-09T16:51:22.429Z,13.40
2022-10-09T16:53:54.467Z,13.30
2022-10-09T16:56:23.800Z,13.30
2022-10-09T16:58:55.567Z,13.20
2022-10-09T17:01:22.605Z,13.20
2022-10-09T17:03:49.456Z,13.20
2022-10-09T17:06:23.519Z,13.20
2022-10-09T17:08:55.603Z,13.20
2022-10-09T17:11:22.800Z,13.30
2022-10-09T17:13:49.546Z,13.20
2022-10-09T17:16:20.083Z,13.30
2022-10-09T17:18:48.159Z,13.30
2022-10-09T17:21:17.004Z,13.30
2022-10-09T17:23:44.120Z,13.30
2022-10-09T17:26:17.002Z,13.20
2022-10-09T17:28:44.155Z,13.20
2022-10-09T17:31:16.582Z,13.20
2022-10-09T17:33:46.144Z,13.20
2022-10-09T17:36:15.185Z,13.20
2022-10-09T17:38:42.024Z,13.20
2022-10-09T17:41:12.588Z,13.20
2022-10-09T17:43:39.943Z,13.10
2022-10-09T17:46:07.263Z,13.20
2022-10-09T17:48:34.720Z,13.10
2022-10-09T17:51:06.061Z,13.20
2022-10-09T17:53:32.814Z,13.20
2022-10-09T17:56:03.811Z,13.30
2022-10-09T17:58:30.829Z,13.30
2022-10-09T18:00:57.595Z,13.40
2022-10-09T18:03:24.391Z,13.30
2022-10-09T18:05:51.554Z,13.40
2022-10-09T18:08:19.448Z,13.40
2022-10-09T18:10:47.009Z,13.40
2022-10-09T18:13:14.209Z,13.40
2022-10-09T18:15:43.901Z,13.40
2022-10-09T18:18:11.775Z,13.30
2022-10-09T18:20:40.084Z,13.30
2022-10-09T18:23:07.950Z,13.30
2022-10-09T18:25:35.877Z,13.30
2022-10-09T18:28:02.734Z,13.30
2022-10-09T18:30:29.518Z,13.40
2022-10-09T18:32:56.385Z,13.40
2022-10-09T18:35:23.305Z,13.40
2022-10-09T18:37:50.036Z,13.40
2022-10-09T18:40:17.111Z,13.40
2022-10-09T18:42:43.840Z,13.40
2022-10-09T18:45:14.523Z,13.30
2022-10-09T18:47:41.817Z,13.30
2022-10-09T18:50:10.732Z,13.20
2022-10-09T18:52:37.935Z,13.20
2022-10-09T18:55:07.418Z,13.10
2022-10-09T18:57:34.580Z,13.10
2022-10-09T19:00:02.212Z,13.10
2022-10-09T19:02:29.024Z,13.20
2022-10-09T19:04:56.121Z,13.10
2022-10-09T19:07:22.972Z,13.20
2022-10-09T19:09:54.944Z,13.20
2022-10-09T19:12:23.858Z,13.20
2022-10-09T19:14:50.704Z,13.20
2022-10-09T19:17:20.307Z,13.20
2022-10-09T19:19:47.070Z,13.20
2022-10-09T19:22:16.461Z,13.10
2022-10-09T19:24:44.989Z,13.10
2022-10-09T19:27:11.746Z,13.10
2022-10-09T19:29:38.676Z,13.10
2022-10-09T19:32:05.439Z,13.00
2022-10-09T19:34:32.232Z,12.90
2022-10-09T19:36:59.067Z,12.80
2022-10-09T19:39:25.903Z,12.80
2022-10-09T19:41:52.635Z,12.80
2022-10-09T19:44:19.409Z,12.80
2022-10-09T19:46:46.317Z,12.80
2022-10-09T19:49:13.091Z,12.70
2022-10-09T19:51:40.408Z,12.60
2022-10-09T19:54:09.156Z,12.60
2022-10-09T19:56:37.339Z,12.60
2022-10-09T19:59:06.833Z,12.60
2022-10-09T20:01:35.771Z,12.60
2022-10-09T20:04:05.488Z,12.50
2022-10-09T20:06:32.586Z,12.50
2022-10-09T20:08:59.356Z,12.50
2022-10-09T20:11:26.799Z,12.50
2022-10-09T20:13:56.283Z,12.50
2022-10-09T20:16:23.867Z,12.50
2022-10-09T20:18:50.725Z,12.50
2022-10-09T20:21:18.166Z,12.50
2022-10-09T20:23:45.337Z,12.40
2022-10-09T20:26:15.542Z,12.40
2022-10-09T20:28:43.967Z,12.40
2022-10-09T20:31:14.699Z,12.40
2022-10-09T20:33:42.957Z,12.40
2022-10-09T20:36:23.145Z,12.40
2022-10-09T20:38:50.231Z,12.50
2022-10-09T20:41:17.478Z,12.50
2022-10-09T20:43:44.957Z,12.50
2022-10-09T20:46:14.620Z,12.60
2022-10-09T20:48:42.863Z,12.50
2022-10-09T20:51:09.924Z,12.50
2022-10-09T20:53:37.019Z,12.40
2022-10-09T20:56:06.701Z,12.40
2022-10-09T20:58:34.474Z,12.40
2022-10-09T21:01:04.875Z,12.40
2022-10-09T21:03:31.886Z,12.20
2022-10-09T21:05:58.588Z,12.20
2022-10-09T21:08:25.268Z,12.20
2022-10-09T21:10:51.967Z,12.20
2022-10-09T21:13:18.731Z,12.20
2022-10-09T21:15:48.518Z,12.10
2022-10-09T21:18:17.235Z,12.10
2022-10-09T21:20:45.731Z,12.10
2022-10-09T21:23:13.851Z,12.10
2022-10-09T21:25:51.096Z,12.00
2022-10-09T21:28:19.739Z,11.80
2022-10-09T21:30:46.780Z,11.80
2022-10-09T21:33:14.152Z,11.90
2022-10-09T21:35:51.231Z,11.80
2022-10-09T21:38:20.272Z,11.80
2022-10-09T21:40:49.252Z,11.70
2022-10-09T21:43:16.387Z,11.80
2022-10-09T21:45:43.659Z,11.80
2022-10-09T21:48:14.158Z,11.80
2022-10-09T21:50:40.880Z,11.80
2022-10-09T21:53:07.640Z,11.80
2022-10-09T21:55:34.666Z,11.70
2022-10-09T21:58:01.394Z,11.80
2022-10-09T22:00:28.078Z,11.80
2022-10-09T22:02:54.822Z,11.70
2022-10-09T22:05:22.086Z,11.70
2022-10-09T22:07:48.792Z,11.70
2022-10-09T22:10:15.808Z,11.70
2022-10-09T22:12:42.637Z,11.80
2022-10-09T22:15:09.776Z,11.70
2022-10-09T22:17:36.499Z,11.80
2022-10-09T22:20:04.069Z,11.80
2022-10-09T22:22:30.883Z,11.80
2022-10-09T22:24:59.295Z,11.70
2022-10-09T22:27:26.131Z,11.70
2022-10-09T22:29:52.918Z,11.60
2022-10-09T22:32:19.610Z,11.60
2022-10-09T22:34:46.290Z,11.50
2022-10-09T22:37:12.952Z,11.50
2022-10-09T22:39:39.643Z,11.50
2022-10-09T22:42:06.305Z,11.50
2022-10-09T22:44:32.992Z,11.50
2022-10-09T22:46:59.792Z,11.50
2022-10-09T22:49:27.503Z,11.50
2022-10-09T22:51:54.247Z,11.50
2022-10-09T22:54:22.082Z,11.50
2022-10-09T22:56:48.780Z,11.50
2022-10-09T22:59:18.241Z,11.50
2022-10-09T23:01:51.489Z,11.50
2022-10-09T23:04:19.227Z,11.50
2022-10-09T23:06:48.801Z,11.50
2022-10-09T23:09:17.501Z,11.50
2022-10-09T23:11:44.550Z,11.50
2022-10-09T23:14:11.841Z,11.50
2022-10-09T23:16:39.063Z,11.40
2022-10-09T23:19:07.195Z,11.50
2022-10-09T23:21:35.664Z,11.50
2022-10-09T23:24:02.602Z,11.60
2022-10-09T23:26:31.368Z,11.60
2022-10-09T23:29:12.499Z,11.70
2022-10-09T23:31:39.204Z,11.70
2022-10-09T23:34:06.758Z,11.70
2022-10-09T23:36:34.226Z,11.80
2022-10-09T23:39:02.489Z,11.90
2022-10-09T23:41:30.262Z,11.90
2022-10-09T23:43:57.350Z,11.90
2022-10-09T23:46:26.680Z,12.00
2022-10-09T23:48:53.965Z,12.00
2022-10-09T23:51:22.802Z,12.10
2022-10-09T23:53:49.997Z,12.10
2022-10-09T23:56:23.536Z,12.20
2022-10-09T23:58:50.740Z,12.20
